MZBZ/BZE METAR and TAF weather

Enter ICAO airport designator
Station Type Date Time Source
MZBZ METAR 2020/04/09 00:00 UTC NOAA

MZBZ 090000Z 09004KT 9999 FEW023 28/25 A2988 Q1011 NOSIG


Station Type Date Time Source
MZBZ Decoded METAR 2020/04/09 00:00 UTC NOAA

Belize / Phillip Goldston Intl. Airport, Belize (MZBZ) 17-32N 088-18W 5M
Apr 08, 2020 - 08:00 PM EDT / 2020.04.09 0000 UTC
Wind: from the E (090 degrees) at 5 MPH (4 KT):0
Visibility: greater than 7 mile(s):0
Sky conditions: mostly clear
Temperature: 82 F (28 C)
Dew Point: 77 F (25 C)
Relative Humidity: 83%
Pressure (altimeter): 29.88 in. Hg (1011 hPa)
ob: MZBZ 090000Z 09004KT 9999 FEW023 28/25 A2988 Q1011 NOSIG
cycle: 0

Station Type Date Time Source
MZBZ TAF 2020/04/09 06:14 UTC NOAA

TAF MZBZ 090300Z 0906/1006 12006KT 9999 SCT020

Example: see airport list